EGPO - Stornoway
Distance from station: E 5mi, 14km
Updated: 12/16/2017 9:50pm
Light rain, Mostly cloudy
Light rain, Mostly cloudy
 Wind from SSW
Wind: SSW 21 mph , 33 km/h
Temperature: 48°F , 9°C
Wind Chill: 41°F , 5°C
Dew Point: 48°F , 9°C
Humidity: 100%
Barometer: 29.68 inHg , 1005 hPa
Summary: Light Rain
Clouds: Mostly Cloudy
Visibility: 4 miles , 7 km
Cloud details: Mostly Cloudy 200 ft
2017/12/17 05:50 EGPO 170550Z AUTO 20018KT 7000 -RA BKN002/// 09/09 Q1005 RERA